Portada
METAR-TAF:

METAR-TAF

Aeroports :

Aeroport Internacional El Dorado

Bogotà, Colòmbia

latitud: 04-43N, longitud: 074-09W, altitud: 2547 m

Observació

L'informe es va fer fa 1 hora i 4 minuts, a les 21:00 UTC
Vent 6 kt del Sud/Sud-Est
Temperatura 19°C
Humitat 40%
Pressió 1025 hPa
Visibilitat 10 km o més
Núvols disperses a una alçada de 2000 ft
Cel ennuvolat a una alçada de 20000 ft

METAR: SKBO 152100Z 15006KT 9999 SCT020 BKN200 19/05 A3027 NOSIG

Hora: 17:04 (22:04 UTC)

Pronòstic

L'informe es va fer fa 5 hores i 34 minuts, a les 16:30 UTC
Pronòstic vàlid del 15 a les 18 UTC al 16 a les 18 UTC
Vent 12 kt del Sud-Est
Visibilitat 10 km o més
Cel ennuvolat a una alçada de 2000 ft
Evolucionant progressivament
l' 16 a les 00 UTC al 16 a les 02 UTC
Vent 4 kt del Nord/Nord-Est
Escasses núvols a una alçada de 1700 ft
Núvols disperses a una alçada de 10000 ft

TAF: SKBO 151630Z 1518/1618 14012KT 9999 BKN020 BECMG 1600/1602 03004KT FEW017 SCT100 TX20/1518Z TN09/1611Z

Observacions i pronòstics meteorològics de més de 4000 aeroports (METAR i TAF).

Les estacions disponibles són els punts grocs i vermells al mapa.

Posi el ratolí al punt desitjat per veure el nom de l'estació.

Feu clic per veure les observacions i els pronòstics meteorològics.

Per canviar el mapa: feu clic els botons verds amb una creu de color negre per apropar; al botó verd amb un guió per allunyar la imatge; o en les fletxes verdes per a mapes adjacents.


METAR-TAF: